Time;durP1;ratioP1;P1;durP2;ratioP2;P2;SDS_P1;SDS_P2;PMS_P1;PMS_P2;Temp;Humidity;BMP_temperature;BMP_pressure;BME280_temperature;BME280_humidity;BME280_pressure;Samples;Min_cycle;Max_cycle;Signal;HPM_P1;HPM_P2
2024/04/17 00:01:21;;;;;;;2.10;1.87;;;8.20;98.00;;;;;;5416451;26;20458;-89
2024/04/17 00:03:50;;;;;;;2.40;1.80;;;8.10;98.00;;;;;;5416525;26;20465;-89
2024/04/17 00:06:16;;;;;;;3.50;2.10;;;8.00;98.00;;;;;;5416818;26;20450;-89
2024/04/17 00:08:48;;;;;;;3.07;2.10;;;8.00;98.00;;;;;;5416383;26;20459;-89
2024/04/17 00:11:14;;;;;;;2.73;1.93;;;8.00;98.00;;;;;;5416065;26;20455;-89
2024/04/17 00:13:43;;;;;;;4.53;2.27;;;8.20;98.00;;;;;;5416092;26;20470;-89
2024/04/17 00:16:09;;;;;;;2.60;2.07;;;8.20;98.00;;;;;;5416761;26;20455;-89
2024/04/17 00:18:39;;;;;;;3.37;2.47;;;8.20;98.00;;;;;;5416877;26;20506;-89
2024/04/17 00:21:06;;;;;;;3.80;2.30;;;8.30;98.00;;;;;;5417119;26;20962;-89
2024/04/17 00:23:36;;;;;;;2.63;2.10;;;8.40;98.00;;;;;;5416886;26;20482;-89
2024/04/17 00:26:05;;;;;;;3.27;2.30;;;8.30;98.00;;;;;;5417859;26;20514;-89
2024/04/17 00:28:39;;;;;;;2.63;1.90;;;8.10;98.00;;;;;;5416210;26;20469;-89
2024/04/17 00:31:08;;;;;;;2.90;1.90;;;8.10;98.00;;;;;;5415982;26;20508;-89
2024/04/17 00:33:36;;;;;;;2.13;1.83;;;7.90;98.00;;;;;;5416055;26;20490;-89
2024/04/17 00:36:03;;;;;;;3.00;1.80;;;7.90;98.00;;;;;;5415739;26;20462;-89
2024/04/17 00:38:59;;;;;;;3.03;1.70;;;7.80;98.00;;;;;;5415904;26;20515;-89
2024/04/17 00:41:28;;;;;;;1.87;1.53;;;7.70;98.00;;;;;;5418267;26;20968;-89
2024/04/17 00:43:56;;;;;;;2.50;1.90;;;7.70;98.00;;;;;;5439705;26;20556;-89
2024/04/17 00:46:48;;;;;;;2.03;1.60;;;7.60;98.00;;;;;;5439712;26;20443;-89
2024/04/17 00:49:18;;;;;;;1.70;1.50;;;7.60;98.00;;;;;;5416552;26;20521;-89
2024/04/17 00:51:46;;;;;;;1.80;1.43;;;7.50;98.00;;;;;;5415896;26;20596;-89
2024/04/17 00:54:17;;;;;;;2.33;1.77;;;7.40;98.00;;;;;;5415642;26;20502;-89
2024/04/17 00:56:47;;;;;;;1.73;1.60;;;7.40;98.00;;;;;;5415507;26;20457;-89
2024/04/17 00:59:16;;;;;;;1.83;1.70;;;7.40;98.00;;;;;;5415464;26;20506;-89
2024/04/17 01:01:42;;;;;;;2.23;1.50;;;7.50;98.00;;;;;;5415414;26;20459;-89
2024/04/17 01:04:12;;;;;;;1.90;1.40;;;7.50;98.00;;;;;;5415800;26;20513;-89
2024/04/17 01:06:38;;;;;;;2.03;1.63;;;7.50;98.00;;;;;;5415305;26;20453;-88
2024/04/17 01:09:08;;;;;;;1.60;1.47;;;7.30;98.00;;;;;;5415614;26;20518;-89
2024/04/17 01:11:39;;;;;;;2.03;1.60;;;7.40;98.00;;;;;;5415146;26;20596;-89
2024/04/17 01:14:11;;;;;;;2.00;1.40;;;7.50;98.00;;;;;;5415713;26;20522;-89
2024/04/17 01:16:43;;;;;;;1.50;1.40;;;7.60;98.00;;;;;;5415346;26;20518;-88
2024/04/17 01:19:15;;;;;;;1.70;1.47;;;7.70;98.00;;;;;;5415479;26;20527;-88
2024/04/17 01:21:49;;;;;;;2.57;1.70;;;7.70;98.00;;;;;;5415074;26;20461;-89
2024/04/17 01:24:21;;;;;;;2.20;1.40;;;7.80;98.00;;;;;;5415775;26;20482;-89
2024/04/17 01:26:51;;;;;;;1.90;1.73;;;7.80;98.00;;;;;;5415182;26;20583;-89
2024/04/17 01:29:20;;;;;;;1.97;1.77;;;7.90;98.00;;;;;;5415230;26;20455;-89
2024/04/17 01:31:52;;;;;;;2.27;1.60;;;7.90;98.00;;;;;;5414670;26;20459;-89
2024/04/17 01:34:21;;;;;;;2.30;1.60;;;7.90;98.00;;;;;;5414713;26;20482;-88
2024/04/17 01:37:05;;;;;;;3.50;1.67;;;7.80;98.00;;;;;;5416426;26;20514;-89
2024/04/17 01:39:52;;;;;;;2.33;1.70;;;7.90;98.00;;;;;;5418773;26;20461;-88
2024/04/17 01:42:19;;;;;;;1.90;1.50;;;7.90;98.00;;;;;;5418225;26;20490;-88
2024/04/17 01:44:48;;;;;;;2.43;1.70;;;8.00;98.00;;;;;;5418247;26;20496;-89
2024/04/17 01:47:14;;;;;;;1.60;1.50;;;7.90;98.00;;;;;;5417900;26;20453;-89
2024/04/17 01:49:43;;;;;;;2.33;1.40;;;7.90;98.00;;;;;;5417896;26;20474;-88
2024/04/17 01:52:09;;;;;;;2.10;1.60;;;7.90;98.00;;;;;;5417798;26;20501;-89
2024/04/17 01:54:38;;;;;;;1.53;1.40;;;7.90;98.00;;;;;;5417918;26;20519;-88
2024/04/17 01:57:07;;;;;;;1.40;1.27;;;7.90;98.00;;;;;;5417868;26;20464;-88
2024/04/17 01:59:36;;;;;;;1.60;1.40;;;7.80;98.00;;;;;;5418024;26;20467;-89
2024/04/17 02:02:05;;;;;;;1.60;1.20;;;7.80;98.00;;;;;;5417643;26;20458;-88
2024/04/17 02:04:33;;;;;;;1.60;1.37;;;7.60;98.00;;;;;;5417668;26;20922;-89
2024/04/17 02:07:01;;;;;;;1.33;1.20;;;7.70;98.00;;;;;;5417417;26;20493;-88
2024/04/17 02:09:29;;;;;;;1.70;1.40;;;7.60;98.00;;;;;;5417577;26;20522;-88
2024/04/17 02:11:57;;;;;;;1.50;1.20;;;7.50;98.00;;;;;;5417579;26;20969;-90
2024/04/17 02:14:30;;;;;;;1.50;1.33;;;7.40;98.00;;;;;;5417642;26;20870;-90
2024/04/17 02:16:56;;;;;;;1.30;1.20;;;7.50;98.00;;;;;;5429290;26;20526;-89
2024/04/17 02:19:25;;;;;;;1.30;1.30;;;7.30;98.00;;;;;;5418143;26;20502;-89
2024/04/17 02:21:51;;;;;;;1.40;1.30;;;7.10;98.00;;;;;;5417951;26;20563;-89
2024/04/17 02:24:19;;;;;;;1.63;1.40;;;7.10;98.00;;;;;;5417631;26;20537;-90
2024/04/17 02:26:46;;;;;;;1.63;1.33;;;7.20;98.00;;;;;;5417929;26;20454;-89
2024/04/17 02:29:14;;;;;;;2.10;1.40;;;7.20;98.00;;;;;;5416785;26;20517;-88
2024/04/17 02:31:43;;;;;;;1.43;1.23;;;7.10;98.00;;;;;;5417556;26;20450;-88
2024/04/17 02:34:16;;;;;;;1.50;1.40;;;7.10;98.00;;;;;;5417304;26;20538;-88
2024/04/17 02:36:42;;;;;;;1.43;1.37;;;7.40;98.00;;;;;;5417620;26;20548;-89
2024/04/17 02:39:11;;;;;;;1.37;1.33;;;7.50;98.00;;;;;;5417117;26;20470;-89
2024/04/17 02:41:37;;;;;;;1.53;1.43;;;7.40;98.00;;;;;;5417223;26;21012;-89
2024/04/17 02:44:06;;;;;;;3.93;1.53;;;7.20;98.00;;;;;;5417103;26;20522;-89
2024/04/17 02:46:33;;;;;;;1.40;1.23;;;7.10;98.00;;;;;;5416547;26;20942;-89
2024/04/17 02:49:04;;;;;;;1.67;1.30;;;7.00;98.00;;;;;;5417436;26;20470;-89
2024/04/17 02:51:30;;;;;;;1.80;1.50;;;6.90;98.00;;;;;;5417230;26;20504;-89
2024/04/17 02:54:00;;;;;;;1.90;1.60;;;6.80;98.00;;;;;;5416936;26;20916;-88
2024/04/17 02:56:26;;;;;;;4.67;2.50;;;6.80;98.00;;;;;;5416865;26;20579;-88
2024/04/17 02:58:57;;;;;;;2.70;1.80;;;6.80;98.00;;;;;;5416895;26;20808;-88
2024/04/17 03:01:24;;;;;;;2.50;1.80;;;6.80;98.00;;;;;;5416959;26;20502;-89
2024/04/17 03:03:53;;;;;;;1.80;1.50;;;6.70;98.00;;;;;;5416819;26;20477;-89
2024/04/17 03:06:22;;;;;;;1.80;1.50;;;6.60;98.00;;;;;;5417218;26;20504;-89
2024/04/17 03:08:52;;;;;;;1.73;1.60;;;6.70;98.00;;;;;;5418725;26;21019;-88
2024/04/17 03:11:19;;;;;;;3.00;1.93;;;6.90;98.00;;;;;;5425913;26;20503;-89
2024/04/17 03:13:47;;;;;;;1.90;1.50;;;6.90;98.00;;;;;;5440436;26;20522;-88
2024/04/17 03:16:13;;;;;;;1.63;1.43;;;6.80;98.00;;;;;;5424080;26;20492;-88
2024/04/17 03:18:42;;;;;;;2.73;1.53;;;6.80;98.00;;;;;;5416752;26;20466;-88
2024/04/17 03:21:08;;;;;;;3.13;1.80;;;6.80;98.00;;;;;;5416577;26;20456;-88
2024/04/17 03:23:40;;;;;;;1.67;1.53;;;7.00;98.00;;;;;;5416521;26;20481;-88
2024/04/17 03:26:06;;;;;;;1.60;1.50;;;7.10;98.00;;;;;;5416642;26;20454;-88
2024/04/17 03:28:35;;;;;;;2.13;1.70;;;7.20;98.00;;;;;;5416456;26;20586;-88
2024/04/17 03:31:02;;;;;;;1.93;1.40;;;7.30;98.00;;;;;;5416494;26;20465;-88
2024/04/17 03:33:32;;;;;;;2.03;1.60;;;7.10;98.00;;;;;;5416554;26;20517;-89
2024/04/17 03:35:59;;;;;;;1.60;1.50;;;7.10;98.00;;;;;;5416334;26;20843;-88
2024/04/17 03:38:29;;;;;;;1.70;1.53;;;7.10;98.00;;;;;;5416252;26;20509;-89
2024/04/17 03:41:00;;;;;;;3.13;1.93;;;7.10;98.00;;;;;;5416520;26;20879;-88
2024/04/17 03:43:29;;;;;;;2.13;1.70;;;7.30;98.00;;;;;;5416475;26;20746;-88
2024/04/17 03:45:57;;;;;;;2.87;2.00;;;7.40;98.00;;;;;;5416166;26;20462;-89
2024/04/17 03:48:26;;;;;;;2.77;2.00;;;7.40;98.00;;;;;;5416307;26;20461;-89
2024/04/17 03:50:53;;;;;;;2.87;1.90;;;7.40;98.00;;;;;;5416124;26;20764;-88
2024/04/17 03:53:25;;;;;;;2.70;2.10;;;7.30;98.00;;;;;;5415888;26;20481;-88
2024/04/17 03:55:54;;;;;;;3.23;1.97;;;7.30;98.00;;;;;;5415753;26;20562;-88
2024/04/17 03:58:24;;;;;;;2.57;2.10;;;7.20;98.00;;;;;;5415801;26;20805;-88
2024/04/17 04:00:53;;;;;;;2.70;2.03;;;7.10;98.00;;;;;;5415953;26;20470;-88
2024/04/17 04:03:20;;;;;;;2.30;1.80;;;7.10;98.00;;;;;;5415878;26;20527;-89
2024/04/17 04:05:48;;;;;;;2.20;1.73;;;7.10;98.00;;;;;;5415937;26;20588;-88
2024/04/17 04:08:14;;;;;;;5.23;2.07;;;7.20;98.00;;;;;;5416473;26;20507;-89
2024/04/17 04:10:44;;;;;;;2.87;2.00;;;7.10;98.00;;;;;;5415798;26;20465;-88
2024/04/17 04:13:10;;;;;;;2.20;1.80;;;7.10;98.00;;;;;;5415921;26;20470;-88
2024/04/17 04:15:42;;;;;;;3.30;2.00;;;7.10;98.00;;;;;;5415705;26;20518;-88
2024/04/17 04:18:08;;;;;;;3.10;2.10;;;7.20;98.00;;;;;;5416002;26;20459;-88
2024/04/17 04:20:37;;;;;;;3.07;2.40;;;7.30;98.00;;;;;;5416203;26;20458;-89
2024/04/17 04:23:04;;;;;;;2.93;2.10;;;7.20;98.00;;;;;;5415671;26;20840;-89
2024/04/17 04:25:33;;;;;;;4.17;2.37;;;7.00;98.00;;;;;;5416178;26;20578;-88
2024/04/17 04:27:59;;;;;;;2.90;1.97;;;7.00;98.00;;;;;;5415502;26;20508;-88
2024/04/17 04:30:28;;;;;;;2.70;1.97;;;7.00;98.00;;;;;;5415889;26;20465;-88
2024/04/17 04:32:59;;;;;;;4.00;2.57;;;7.00;98.00;;;;;;5415887;26;20522;-89
2024/04/17 04:35:27;;;;;;;3.00;2.10;;;7.00;98.00;;;;;;5415696;26;20605;-88
2024/04/17 04:37:54;;;;;;;4.33;2.30;;;7.00;98.00;;;;;;5415533;26;20457;-88
2024/04/17 04:40:23;;;;;;;2.97;2.27;;;6.90;98.00;;;;;;5415748;26;20454;-89
2024/04/17 04:42:49;;;;;;;6.20;2.50;;;7.00;98.00;;;;;;5415506;26;20485;-89
2024/04/17 04:45:18;;;;;;;3.50;2.47;;;6.90;98.00;;;;;;5415464;26;20877;-88
2024/04/17 04:47:44;;;;;;;6.63;2.63;;;6.90;98.00;;;;;;5415473;26;20594;-88
2024/04/17 04:50:18;;;;;;;3.50;2.30;;;7.00;98.00;;;;;;5415457;26;20560;-88
2024/04/17 04:52:44;;;;;;;3.53;2.50;;;7.00;98.00;;;;;;5415169;26;20656;-88
2024/04/17 04:55:15;;;;;;;4.73;2.83;;;7.20;98.00;;;;;;5414904;26;20498;-89
2024/04/17 04:57:42;;;;;;;3.80;2.17;;;7.10;98.00;;;;;;5415267;26;20465;-88
2024/04/17 05:00:12;;;;;;;3.77;2.50;;;7.10;98.00;;;;;;5415124;26;20470;-88
2024/04/17 05:02:38;;;;;;;4.23;2.87;;;7.10;98.00;;;;;;5415136;26;20482;-88
2024/04/17 05:05:07;;;;;;;4.37;2.63;;;7.00;98.00;;;;;;5415757;26;20881;-88
2024/04/17 05:07:37;;;;;;;3.53;2.57;;;7.00;98.00;;;;;;5415701;26;20983;-88
2024/04/17 05:10:06;;;;;;;5.97;3.30;;;7.20;98.00;;;;;;5415890;26;20515;-88
2024/04/17 05:12:33;;;;;;;4.53;3.00;;;7.10;98.00;;;;;;5418419;26;20468;-88
2024/04/17 05:15:04;;;;;;;4.20;2.73;;;7.20;98.00;;;;;;5419469;26;20510;-88
2024/04/17 05:17:30;;;;;;;4.77;2.70;;;7.20;98.00;;;;;;5418898;26;20458;-88
2024/04/17 05:19:59;;;;;;;5.53;2.97;;;7.20;98.00;;;;;;5418831;26;20453;-88
2024/04/17 05:22:26;;;;;;;5.47;3.00;;;7.20;98.00;;;;;;5418864;26;21056;-88
2024/04/17 05:24:58;;;;;;;5.13;2.97;;;7.30;98.00;;;;;;5419464;26;20566;-88
2024/04/17 05:27:24;;;;;;;5.40;3.10;;;7.30;98.00;;;;;;5419051;26;20508;-88
2024/04/17 05:29:53;;;;;;;5.17;3.00;;;7.40;98.00;;;;;;5419133;26;20448;-89
2024/04/17 05:32:19;;;;;;;5.70;3.30;;;7.40;98.00;;;;;;5419250;26;20513;-88
2024/04/17 05:34:48;;;;;;;5.10;3.33;;;7.40;98.00;;;;;;5418616;26;20568;-88
2024/04/17 05:37:15;;;;;;;6.17;3.37;;;7.40;98.00;;;;;;5419704;26;20457;-88
2024/04/17 05:39:44;;;;;;;5.93;3.10;;;7.40;98.00;;;;;;5429428;26;20498;-88
2024/04/17 05:42:20;;;;;;;5.20;2.90;;;7.40;98.00;;;;;;5436838;26;20509;-89
2024/04/17 05:44:53;;;;;;;5.27;3.03;;;7.40;98.00;;;;;;5421234;26;20434;-89
2024/04/17 05:47:19;;;;;;;5.67;3.40;;;7.40;98.00;;;;;;5419336;26;20454;-89
2024/04/17 05:49:48;;;;;;;4.70;2.90;;;7.40;98.00;;;;;;5418340;26;20879;-88
2024/04/17 05:52:14;;;;;;;5.80;3.20;;;7.40;98.00;;;;;;5418527;26;20509;-88
2024/04/17 05:54:43;;;;;;;5.57;3.27;;;7.40;98.00;;;;;;5418718;26;20552;-88
2024/04/17 05:57:10;;;;;;;4.40;3.07;;;7.50;98.00;;;;;;5418259;26;20446;-88
2024/04/17 05:59:41;;;;;;;4.90;3.40;;;7.60;98.00;;;;;;5418149;26;20454;-87
2024/04/17 06:02:07;;;;;;;6.60;3.87;;;7.60;98.00;;;;;;5417987;26;21025;-88
2024/04/17 06:04:37;;;;;;;5.63;3.33;;;7.80;98.00;;;;;;5418036;26;20458;-87
2024/04/17 06:07:03;;;;;;;5.10;3.30;;;8.00;98.00;;;;;;5418188;26;20478;-87
2024/04/17 06:09:33;;;;;;;7.20;3.37;;;8.10;98.00;;;;;;5418016;26;20520;-87
2024/04/17 06:11:59;;;;;;;5.87;3.60;;;8.10;98.00;;;;;;5418259;26;20559;-87
2024/04/17 06:14:29;;;;;;;6.50;3.60;;;8.10;98.00;;;;;;5418402;26;20461;-87
2024/04/17 06:16:57;;;;;;;5.13;3.07;;;8.10;98.00;;;;;;5418348;26;20488;-87
2024/04/17 06:19:26;;;;;;;5.00;3.40;;;7.90;98.00;;;;;;5418777;26;20801;-88
2024/04/17 06:21:52;;;;;;;4.70;3.13;;;7.90;98.00;;;;;;5417659;26;20458;-89
2024/04/17 06:24:21;;;;;;;7.47;3.20;;;7.80;98.00;;;;;;5418159;26;20464;-88
2024/04/17 06:26:47;;;;;;;5.67;3.40;;;7.90;98.00;;;;;;5419252;26;20510;-88
2024/04/17 06:29:17;;;;;;;6.70;3.60;;;8.00;98.00;;;;;;5418934;26;20521;-89
2024/04/17 06:31:43;;;;;;;7.40;3.43;;;8.10;98.00;;;;;;5420223;26;20843;-88
2024/04/17 06:34:15;;;;;;;6.00;3.63;;;7.90;98.00;;;;;;5417903;26;20522;-88
2024/04/17 06:36:41;;;;;;;6.00;3.60;;;7.80;98.00;;;;;;5419545;26;20461;-88
2024/04/17 06:39:10;;;;;;;10.10;3.83;;;7.80;98.00;;;;;;5423558;26;20466;-87
2024/04/17 06:41:37;;;;;;;8.33;4.23;;;8.00;98.00;;;;;;5419644;26;20997;-89
2024/04/17 06:44:06;;;;;;;6.20;3.70;;;8.00;98.00;;;;;;5420722;26;21108;-89
2024/04/17 06:46:32;;;;;;;5.00;3.10;;;8.10;98.00;;;;;;5420780;26;20459;-89
2024/04/17 06:49:01;;;;;;;6.50;3.70;;;8.30;98.00;;;;;;5420845;26;20465;-89
2024/04/17 06:51:30;;;;;;;6.77;3.87;;;8.20;98.00;;;;;;5421001;26;20455;-89
2024/04/17 06:53:59;;;;;;;7.03;3.60;;;8.20;98.00;;;;;;5420634;26;20513;-88
2024/04/17 06:56:26;;;;;;;6.33;3.80;;;8.10;98.00;;;;;;5421434;26;20465;-88
2024/04/17 06:58:55;;;;;;;7.30;3.67;;;7.90;98.00;;;;;;5425227;26;20530;-88
2024/04/17 07:01:21;;;;;;;6.10;3.60;;;7.70;98.00;;;;;;5419658;26;20493;-88
2024/04/17 07:03:49;;;;;;;4.53;2.90;;;7.70;98.00;;;;;;5417951;26;20515;-89
2024/04/17 07:06:15;;;;;;;5.80;3.20;;;7.60;98.00;;;;;;5417727;26;20458;-88
2024/04/17 07:08:47;;;;;;;4.17;2.80;;;7.50;98.00;;;;;;5421728;26;20976;-89
2024/04/17 07:11:15;;;;;;;6.03;3.00;;;7.60;98.00;;;;;;5418474;26;20455;-88
2024/04/17 07:13:41;;;;;;;4.10;2.60;;;7.50;98.00;;;;;;5419827;26;20560;-88
2024/04/17 07:16:10;;;;;;;3.53;2.23;;;7.40;98.00;;;;;;5424238;26;20489;-88
2024/04/17 07:18:36;;;;;;;4.50;2.40;;;7.40;98.00;;;;;;5422114;26;21026;-88
2024/04/17 07:23:56;;;;;;;3.20;2.10;;;7.50;98.00;;;;;;5418736;26;21145;-88
2024/04/17 07:26:22;;;;;;;4.07;2.47;;;7.50;98.00;;;;;;5421100;26;20519;-89
2024/04/17 07:28:51;;;;;;;4.23;2.60;;;7.60;98.00;;;;;;5432134;26;20467;-86
2024/04/17 07:31:18;;;;;;;5.20;2.57;;;7.70;98.00;;;;;;5423721;26;20508;-87
2024/04/17 07:33:49;;;;;;;3.70;2.30;;;7.60;98.00;;;;;;5419079;26;20474;-89
2024/04/17 07:36:16;;;;;;;3.20;2.40;;;7.60;98.00;;;;;;5421279;26;20526;-87
2024/04/17 07:38:45;;;;;;;4.40;2.70;;;7.80;98.00;;;;;;5417092;26;21045;-87
2024/04/17 07:41:14;;;;;;;4.13;2.63;;;7.80;98.00;;;;;;5426125;26;20496;-88
2024/04/17 07:43:42;;;;;;;5.60;3.13;;;7.90;98.00;;;;;;5416203;26;20481;-88
2024/04/17 07:46:09;;;;;;;4.33;2.60;;;7.90;98.00;;;;;;5424433;26;20513;-88
2024/04/17 07:48:38;;;;;;;4.73;2.90;;;8.00;98.00;;;;;;5418382;26;20606;-88
2024/04/17 07:51:04;;;;;;;4.63;2.77;;;8.00;98.00;;;;;;5417883;26;20458;-88
2024/04/17 07:53:33;;;;;;;5.07;3.00;;;7.90;98.00;;;;;;5416836;26;20474;-86
2024/04/17 07:56:00;;;;;;;3.57;2.60;;;7.90;98.00;;;;;;5419886;26;20466;-88
2024/04/17 07:58:33;;;;;;;4.80;2.90;;;7.80;98.00;;;;;;5427585;26;21225;-88
2024/04/17 08:01:00;;;;;;;5.50;2.93;;;7.70;98.00;;;;;;5422074;26;20466;-88
2024/04/17 08:03:32;;;;;;;9.70;2.97;;;7.70;98.00;;;;;;5423010;26;20817;-88
2024/04/17 08:05:58;;;;;;;5.80;3.20;;;7.80;98.00;;;;;;5419041;26;20450;-88
2024/04/17 08:08:27;;;;;;;4.20;2.63;;;8.00;98.00;;;;;;5417003;26;20533;-88
2024/04/17 08:10:53;;;;;;;5.07;2.87;;;8.00;98.00;;;;;;5416915;26;21028;-87
2024/04/17 08:13:23;;;;;;;6.87;3.80;;;7.90;98.00;;;;;;5416776;26;21051;-88
2024/04/17 08:15:53;;;;;;;5.87;3.67;;;7.80;98.00;;;;;;5417713;26;20832;-87
2024/04/17 08:18:22;;;;;;;6.33;3.53;;;7.80;98.00;;;;;;5418193;26;20439;-88
2024/04/17 08:20:53;;;;;;;6.50;3.80;;;7.70;98.00;;;;;;5646942;21;20497;-72
2024/04/17 08:23:23;;;;;;;7.50;3.60;;;7.80;98.00;;;;;;5414548;26;20507;-69
2024/04/17 08:25:49;;;;;;;7.80;4.17;;;8.00;98.00;;;;;;5383818;26;20504;-76
2024/04/17 08:28:19;;;;;;;6.20;3.63;;;8.00;98.00;;;;;;5414686;26;20915;-65
2024/04/17 08:30:45;;;;;;;6.67;3.70;;;8.10;98.00;;;;;;5413744;26;20462;-74
2024/04/17 08:33:16;;;;;;;8.57;4.10;;;8.00;98.00;;;;;;5383309;26;20500;-73
2024/04/17 08:35:42;;;;;;;7.50;4.23;;;8.00;98.00;;;;;;5414216;26;20462;-73
2024/04/17 08:38:11;;;;;;;9.23;4.23;;;8.00;98.00;;;;;;5414385;26;20525;-74
2024/04/17 08:40:37;;;;;;;6.27;3.73;;;8.00;98.00;;;;;;5414254;26;20462;-74
2024/04/17 08:43:06;;;;;;;6.33;3.60;;;8.00;98.00;;;;;;5414486;26;20505;-73
2024/04/17 08:45:34;;;;;;;6.30;3.60;;;8.30;98.00;;;;;;5413519;26;20509;-74
2024/04/17 08:48:04;;;;;;;6.47;3.80;;;8.40;98.00;;;;;;5408378;26;20590;-73
2024/04/17 08:50:35;;;;;;;7.30;4.13;;;8.70;98.00;;;;;;5413959;26;20454;-74
2024/04/17 08:53:05;;;;;;;8.00;4.10;;;8.70;98.00;;;;;;5413544;26;20580;-74
2024/04/17 08:55:32;;;;;;;6.93;4.10;;;8.60;98.00;;;;;;5414717;26;20470;-72
2024/04/17 08:58:02;;;;;;;7.63;4.40;;;8.70;98.00;;;;;;5413400;26;20513;-74
2024/04/17 09:00:28;;;;;;;7.47;4.60;;;9.00;98.00;;;;;;5414437;26;20467;-74
2024/04/17 09:03:00;;;;;;;9.27;4.93;;;9.10;98.00;;;;;;5414276;26;20515;-74
2024/04/17 09:05:27;;;;;;;8.80;4.33;;;9.20;98.00;;;;;;5414335;26;20506;-74
2024/04/17 09:08:01;;;;;;;8.90;4.40;;;9.20;98.00;;;;;;5413912;26;20459;-75
2024/04/17 09:10:28;;;;;;;9.20;4.73;;;9.10;98.00;;;;;;5413600;26;20959;-75
2024/04/17 09:12:59;;;;;;;9.13;5.17;;;8.90;98.00;;;;;;5413114;26;20478;-75
2024/04/17 09:15:25;;;;;;;7.87;4.60;;;8.70;98.00;;;;;;5383275;26;20457;-74
2024/04/17 09:17:54;;;;;;;11.63;4.57;;;8.60;98.00;;;;;;5382617;26;20572;-73
2024/04/17 09:20:22;;;;;;;9.10;4.57;;;8.50;98.00;;;;;;5413925;26;20467;-74
2024/04/17 09:22:54;;;;;;;7.13;4.10;;;8.20;98.00;;;;;;5382861;26;20466;-74
2024/04/17 09:25:24;;;;;;;10.23;5.03;;;8.30;98.00;;;;;;5413478;26;20447;-74
2024/04/17 09:27:52;;;;;;;9.73;4.63;;;8.40;98.00;;;;;;5413481;26;20458;-74
2024/04/17 09:30:19;;;;;;;9.50;5.00;;;8.30;98.00;;;;;;5413146;26;20851;-74
2024/04/17 09:32:49;;;;;;;10.10;5.50;;;8.40;98.00;;;;;;5413828;26;20514;-74
2024/04/17 09:35:15;;;;;;;10.70;5.17;;;8.50;98.00;;;;;;5413843;26;20508;-74
2024/04/17 09:37:44;;;;;;;11.53;5.70;;;8.50;98.00;;;;;;5412773;26;20467;-74
2024/04/17 09:40:13;;;;;;;9.30;4.83;;;8.60;98.00;;;;;;5413700;26;20992;-73
2024/04/17 09:42:44;;;;;;;8.57;4.90;;;8.40;98.00;;;;;;5381582;26;20885;-74
2024/04/17 09:45:14;;;;;;;10.10;5.30;;;8.20;98.00;;;;;;5413998;26;20885;-73
2024/04/17 09:47:45;;;;;;;10.13;5.07;;;8.20;98.00;;;;;;5413466;26;20536;-73
2024/04/17 09:50:17;;;;;;;10.57;5.70;;;8.20;98.00;;;;;;5382412;26;21022;-73
2024/04/17 09:52:52;;;;;;;10.27;5.30;;;8.30;98.00;;;;;;5390635;26;20555;-74
2024/04/17 09:55:21;;;;;;;9.47;4.30;;;8.30;98.00;;;;;;5378374;26;20965;-74
2024/04/17 09:57:54;;;;;;;8.30;4.13;;;7.90;98.00;;;;;;5379576;26;20574;-74
2024/04/17 10:00:21;;;;;;;6.33;3.63;;;7.80;98.00;;;;;;5381260;26;21058;-75
2024/04/17 10:02:52;;;;;;;6.53;3.70;;;7.80;98.00;;;;;;5393215;26;20471;-74
2024/04/17 10:05:18;;;;;;;8.03;4.03;;;7.70;98.00;;;;;;5407538;26;20535;-74
2024/04/17 10:07:48;;;;;;;6.30;3.80;;;7.60;98.00;;;;;;5416735;26;20504;-74
2024/04/17 10:10:16;;;;;;;8.87;4.73;;;7.60;98.00;;;;;;5415047;26;20462;-75
2024/04/17 10:12:56;;;;;;;6.93;3.93;;;7.50;98.00;;;;;;5416557;26;20518;-74
2024/04/17 10:15:26;;;;;;;7.70;4.33;;;7.60;98.00;;;;;;5416438;26;20508;-74
2024/04/17 10:17:57;;;;;;;5.90;3.93;;;7.50;98.00;;;;;;5416541;26;21002;-74
2024/04/17 10:20:29;;;;;;;6.60;3.93;;;7.50;98.00;;;;;;5415989;26;21010;-75
2024/04/17 10:23:05;;;;;;;6.93;3.70;;;7.30;98.00;;;;;;5416699;26;20471;-74
2024/04/17 10:25:32;;;;;;;6.47;3.67;;;7.30;98.00;;;;;;5416991;26;20516;-75
2024/04/17 10:28:05;;;;;;;10.50;4.80;;;7.30;98.00;;;;;;5416587;26;20462;-74
2024/04/17 10:30:38;;;;;;;7.00;4.23;;;7.20;98.00;;;;;;5415826;26;20795;-74
2024/04/17 10:33:18;;;;;;;7.40;4.10;;;7.20;98.00;;;;;;5416713;26;20508;-74
2024/04/17 10:35:46;;;;;;;7.30;3.90;;;7.30;98.00;;;;;;5415990;26;20452;-74
2024/04/17 10:38:15;;;;;;;9.00;4.30;;;7.40;98.00;;;;;;5416619;26;20461;-74
2024/04/17 10:40:41;;;;;;;9.20;4.90;;;7.20;98.00;;;;;;5416754;26;20468;-74
2024/04/17 10:43:10;;;;;;;9.60;5.20;;;7.20;98.00;;;;;;5416789;26;20565;-74
2024/04/17 10:45:44;;;;;;;8.57;4.43;;;7.30;98.00;;;;;;5416587;26;20464;-74
2024/04/17 10:48:17;;;;;;;5.30;2.80;;;7.40;98.00;;;;;;5416771;26;20502;-74
2024/04/17 10:50:45;;;;;;;4.40;2.90;;;7.30;98.00;;;;;;5416968;26;20510;-74
2024/04/17 10:53:16;;;;;;;5.23;2.93;;;7.40;98.00;;;;;;5416241;26;20883;-74
2024/04/17 10:55:42;;;;;;;3.70;2.40;;;7.20;98.00;;;;;;5415987;26;20473;-74
2024/04/17 10:58:14;;;;;;;6.40;3.20;;;7.20;98.00;;;;;;5416217;26;20473;-74
2024/04/17 11:00:43;;;;;;;4.20;2.83;;;7.20;98.00;;;;;;5415740;26;20857;-75
2024/04/17 11:03:13;;;;;;;5.93;3.20;;;7.30;98.00;;;;;;5415676;26;20520;-75
2024/04/17 11:05:40;;;;;;;6.53;3.30;;;7.40;98.00;;;;;;5415936;26;20459;-75
2024/04/17 11:08:11;;;;;;;5.80;3.50;;;7.60;98.00;;;;;;5415262;26;20455;-75
2024/04/17 11:10:37;;;;;;;6.30;3.00;;;7.60;98.00;;;;;;5356503;26;20507;-75
2024/04/17 11:13:15;;;;;;;4.83;2.90;;;7.60;98.00;;;;;;5415005;26;20887;-74
2024/04/17 11:15:44;;;;;;;5.83;3.50;;;7.80;98.00;;;;;;5357425;26;20523;-74
2024/04/17 11:18:13;;;;;;;4.87;3.37;;;7.90;98.00;;;;;;5414630;26;20467;-74
2024/04/17 11:20:39;;;;;;;9.00;3.40;;;8.00;98.00;;;;;;5414649;26;21031;-74
2024/04/17 11:23:10;;;;;;;7.20;3.37;;;8.20;98.00;;;;;;5415589;26;20555;-74
2024/04/17 11:25:37;;;;;;;10.60;3.70;;;8.60;98.00;;;;;;5416129;26;20495;-74
2024/04/17 11:28:06;;;;;;;4.90;3.40;;;9.00;98.00;;;;;;5415527;26;20453;-76
2024/04/17 11:30:32;;;;;;;5.17;3.30;;;9.60;98.00;;;;;;5415797;26;20459;-75
2024/04/17 11:33:07;;;;;;;6.37;3.40;;;10.20;98.00;;;;;;5415699;26;20506;-75
2024/04/17 11:35:42;;;;;;;5.53;3.30;;;10.80;98.00;;;;;;5415782;26;20459;-74
2024/04/17 11:41:37;;;;;;;5.80;3.40;;;11.60;98.00;;;;;;5383714;26;20554;-87
2024/04/17 11:44:22;;;;;;;6.73;3.70;;;12.20;98.00;;;;;;5379467;26;20510;-87
2024/04/17 12:07:42;;;;;;;9.60;4.80;;;11.70;98.00;;;;;;5243039;27;21176;-86
2024/04/17 12:10:17;;;;;;;8.83;4.70;;;11.30;98.00;;;;;;5240586;27;20488;-88
2024/04/17 12:12:58;;;;;;;9.07;4.80;;;11.00;98.00;;;;;;5239782;27;20645;-87
2024/04/17 12:55:22;;;;;;;8.80;4.20;;;8.30;98.00;;;;;;5080075;28;20987;-87
2024/04/17 12:57:51;;;;;;;7.40;4.10;;;8.60;98.00;;;;;;5085741;27;20474;-87
2024/04/17 13:00:19;;;;;;;8.03;4.00;;;8.70;98.00;;;;;;5173722;27;20536;-87
2024/04/17 13:02:46;;;;;;;8.43;3.50;;;9.10;98.00;;;;;;5257535;27;20461;-87
2024/04/17 13:05:14;;;;;;;5.20;2.93;;;9.50;98.00;;;;;;5307581;27;21122;-86
2024/04/17 13:07:40;;;;;;;5.03;2.93;;;10.60;98.00;;;;;;5334788;26;21038;-87
2024/04/17 13:10:10;;;;;;;4.43;2.90;;;11.40;98.00;;;;;;5345670;26;20486;-87
2024/04/17 13:12:39;;;;;;;8.67;3.80;;;12.40;98.00;;;;;;5343886;26;20804;-88
2024/04/17 13:15:08;;;;;;;6.67;3.80;;;12.80;98.00;;;;;;5344511;26;20520;-86
2024/04/17 13:17:34;;;;;;;6.33;3.20;;;13.00;98.00;;;;;;5344684;26;20507;-87
2024/04/17 13:20:03;;;;;;;5.83;3.00;;;13.70;98.00;;;;;;5345447;26;20500;-88
2024/04/17 13:22:30;;;;;;;8.63;4.00;;;14.50;98.00;;;;;;5344282;26;21093;-88
2024/04/17 13:24:59;;;;;;;11.30;4.20;;;14.60;98.00;;;;;;5344463;26;20584;-88
2024/04/17 13:27:25;;;;;;;11.67;4.23;;;13.90;98.00;;;;;;5344404;26;20469;-88
2024/04/17 13:29:56;;;;;;;7.03;4.73;;;13.20;98.00;;;;;;5344936;26;20830;-87
2024/04/17 13:32:22;;;;;;;8.50;4.90;;;12.60;98.00;;;;;;5345839;26;20508;-87
2024/04/17 13:34:56;;;;;;;8.93;4.63;;;11.80;98.00;;;;;;5346988;26;20496;-87
2024/04/17 13:37:24;;;;;;;9.90;4.73;;;11.50;98.00;;;;;;5347606;26;20464;-90
2024/04/17 13:39:52;;;;;;;8.53;4.63;;;12.10;98.00;;;;;;5347715;26;20570;-89
2024/04/17 13:42:19;;;;;;;12.07;4.83;;;12.70;98.00;;;;;;5345888;26;21010;-84
2024/04/17 13:44:48;;;;;;;6.67;4.40;;;13.40;98.00;;;;;;5344060;26;20464;-84
2024/04/17 13:47:17;;;;;;;10.97;4.53;;;14.10;98.00;;;;;;5345777;26;20452;-84
2024/04/17 13:49:46;;;;;;;6.47;4.00;;;14.60;98.00;;;;;;5344217;26;20472;-87
2024/04/17 13:52:12;;;;;;;8.40;4.87;;;15.10;98.00;;;;;;5343377;26;20502;-87
2024/04/17 13:54:41;;;;;;;8.57;4.40;;;14.90;98.00;;;;;;5344275;26;20534;-87
2024/04/17 13:57:07;;;;;;;8.67;4.00;;;14.40;98.00;;;;;;5344353;26;20522;-87
2024/04/17 13:59:35;;;;;;;5.93;3.57;;;13.90;98.00;;;;;;5345094;26;20479;-87
2024/04/17 14:02:01;;;;;;;9.00;3.63;;;13.40;98.00;;;;;;5345761;26;20458;-87
2024/04/17 14:04:33;;;;;;;6.20;3.63;;;13.20;98.00;;;;;;5344890;26;21016;-88
2024/04/17 14:06:59;;;;;;;7.03;3.80;;;13.00;98.00;;;;;;5345272;26;20459;-87
2024/04/17 14:09:28;;;;;;;5.07;3.17;;;12.90;98.00;;;;;;5345390;26;20554;-87
2024/04/17 14:11:54;;;;;;;6.73;3.40;;;12.70;98.00;;;;;;5345012;26;20512;-87